Time;durP1;ratioP1;P1;durP2;ratioP2;P2;SDS_P1;SDS_P2;PMS_P1;PMS_P2;Temp;Humidity;BMP_temperature;BMP_pressure;BME280_temperature;BME280_humidity;BME280_pressure;Samples;Min_cycle;Max_cycle;Signal;HPM_P1;HPM_P2
2022/12/06 00:01:10;;;;;;;1.70;1.10;;;9.60;38.70;;;;;;5050189;28;20257;-68
2022/12/06 00:03:37;;;;;;;3.67;1.58;;;9.50;38.20;;;;;;5043552;28;20461;-67
2022/12/06 00:06:15;;;;;;;2.03;1.45;;;9.50;38.90;;;;;;5049698;28;20195;-68
2022/12/06 00:08:42;;;;;;;1.90;1.30;;;9.50;38.60;;;;;;5051002;28;20207;-68
2022/12/06 00:11:10;;;;;;;1.60;1.10;;;9.80;38.70;;;;;;5049876;28;20243;-68
2022/12/06 00:13:37;;;;;;;1.80;1.13;;;9.60;38.50;;;;;;5050610;28;20179;-68
2022/12/06 00:16:04;;;;;;;1.85;1.30;;;9.70;37.30;;;;;;5050897;28;20550;-69
2022/12/06 00:18:31;;;;;;;1.70;1.10;;;9.80;36.60;;;;;;5050955;28;20519;-67
2022/12/06 00:21:15;;;;;;;1.75;1.17;;;9.90;35.40;;;;;;5047518;28;20208;-67
2022/12/06 00:23:44;;;;;;;2.42;1.58;;;9.80;36.00;;;;;;5043735;28;20195;-69
2022/12/06 00:26:10;;;;;;;1.80;1.20;;;9.60;37.20;;;;;;5050455;28;20223;-67
2022/12/06 00:28:36;;;;;;;1.60;1.10;;;9.60;37.10;;;;;;5050981;28;20680;-68
2022/12/06 00:31:05;;;;;;;1.70;1.10;;;9.70;37.00;;;;;;5050567;28;20258;-67
2022/12/06 00:33:31;;;;;;;1.70;1.10;;;9.50;37.90;;;;;;5049613;28;20208;-67
2022/12/06 00:35:58;;;;;;;1.70;1.10;;;9.60;35.60;;;;;;5050815;28;20180;-67
2022/12/06 00:38:24;;;;;;;1.70;1.10;;;9.60;36.30;;;;;;5050721;28;20204;-67
2022/12/06 00:40:57;;;;;;;1.65;1.00;;;9.60;36.70;;;;;;5050302;28;20719;-68
2022/12/06 00:43:22;;;;;;;1.70;1.10;;;9.50;37.80;;;;;;5051144;28;20242;-68
2022/12/06 00:45:48;;;;;;;1.70;1.10;;;9.60;36.70;;;;;;5054243;28;20211;-67
2022/12/06 00:48:13;;;;;;;1.67;1.00;;;9.70;36.60;;;;;;5054318;28;20549;-67
2022/12/06 00:50:39;;;;;;;4.63;1.97;;;9.90;36.10;;;;;;5054189;28;20249;-67
2022/12/06 00:53:05;;;;;;;1.90;1.40;;;9.80;36.40;;;;;;5052734;28;20192;-70
2022/12/06 00:55:30;;;;;;;1.70;1.10;;;9.50;36.80;;;;;;5054087;28;20172;-67
2022/12/06 00:57:56;;;;;;;2.00;1.30;;;9.30;37.60;;;;;;5054203;28;20168;-67
2022/12/06 01:00:22;;;;;;;1.70;1.17;;;9.20;38.50;;;;;;5053405;28;20191;-67
2022/12/06 01:02:47;;;;;;;1.70;1.10;;;9.20;38.90;;;;;;5053956;28;20603;-68
2022/12/06 01:05:13;;;;;;;2.30;1.43;;;9.20;38.50;;;;;;5052824;28;20180;-67
2022/12/06 01:07:38;;;;;;;1.80;1.10;;;9.20;37.90;;;;;;5053783;28;20199;-68
2022/12/06 01:10:05;;;;;;;1.70;1.10;;;9.10;38.40;;;;;;5053899;28;20203;-68
2022/12/06 01:12:30;;;;;;;1.75;1.10;;;9.40;37.30;;;;;;5053537;28;20203;-67
2022/12/06 01:14:56;;;;;;;1.80;1.20;;;9.40;37.50;;;;;;5052446;28;20265;-69
2022/12/06 01:17:21;;;;;;;1.80;1.10;;;9.50;37.10;;;;;;5053591;28;20175;-67
2022/12/06 01:19:48;;;;;;;1.80;1.20;;;9.20;37.60;;;;;;5053206;28;21346;-67
2022/12/06 01:22:14;;;;;;;2.00;1.42;;;9.20;38.10;;;;;;5052879;28;20267;-69
2022/12/06 01:24:40;;;;;;;1.70;1.00;;;9.00;38.40;;;;;;5053463;28;20328;-67
2022/12/06 01:27:06;;;;;;;1.80;1.20;;;9.10;37.90;;;;;;5053732;28;20168;-67
2022/12/06 01:29:31;;;;;;;1.75;1.10;;;8.90;38.70;;;;;;5053245;28;20649;-67
2022/12/06 01:31:57;;;;;;;1.80;1.13;;;8.90;38.90;;;;;;5052322;28;20235;-68
2022/12/06 01:34:23;;;;;;;1.70;1.10;;;8.90;39.20;;;;;;5053314;28;20191;-67
2022/12/06 01:36:49;;;;;;;1.77;1.13;;;8.70;39.20;;;;;;5053715;28;21006;-67
2022/12/06 01:39:15;;;;;;;1.70;1.10;;;8.60;39.70;;;;;;5054252;28;20433;-68
2022/12/06 01:41:41;;;;;;;1.80;1.20;;;8.50;39.80;;;;;;5052250;28;20206;-67
2022/12/06 01:44:37;;;;;;;2.20;1.50;;;8.60;39.50;;;;;;5052999;28;20241;-67
2022/12/06 01:47:03;;;;;;;1.80;1.20;;;8.80;38.90;;;;;;5053525;28;20904;-67
2022/12/06 01:49:33;;;;;;;1.80;1.10;;;8.70;38.80;;;;;;5052975;28;20219;-69
2022/12/06 01:52:06;;;;;;;2.38;1.42;;;8.70;38.40;;;;;;5052396;28;20233;-67
2022/12/06 01:54:33;;;;;;;1.80;1.10;;;8.80;38.00;;;;;;5044490;28;20180;-67
2022/12/06 01:57:03;;;;;;;1.90;1.20;;;8.80;37.90;;;;;;5053193;28;20209;-67
2022/12/06 01:59:29;;;;;;;2.55;1.50;;;8.50;38.60;;;;;;5052687;28;20675;-67
2022/12/06 02:01:55;;;;;;;2.00;1.38;;;8.50;38.70;;;;;;5052567;28;20180;-67
2022/12/06 02:04:22;;;;;;;1.90;1.10;;;8.50;38.90;;;;;;5051928;28;20186;-67
2022/12/06 02:06:49;;;;;;;1.85;1.15;;;8.30;39.10;;;;;;5052885;28;20209;-69
2022/12/06 02:09:16;;;;;;;2.60;1.63;;;8.40;39.60;;;;;;5052704;28;20259;-68
2022/12/06 02:11:42;;;;;;;1.80;1.10;;;8.60;38.50;;;;;;5052810;28;20206;-68
2022/12/06 02:14:13;;;;;;;2.38;1.45;;;8.60;38.40;;;;;;5051551;28;20670;-68
2022/12/06 02:17:21;;;;;;;1.80;1.10;;;8.20;39.40;;;;;;5052363;28;20168;-67
2022/12/06 02:20:14;;;;;;;1.80;1.00;;;8.10;39.60;;;;;;5022496;28;20306;-67
2022/12/06 02:23:22;;;;;;;2.35;1.67;;;8.30;38.80;;;;;;5051923;28;20168;-68
2022/12/06 02:26:02;;;;;;;2.05;1.30;;;8.40;38.50;;;;;;5027435;28;20191;-67
2022/12/06 02:29:01;;;;;;;3.58;2.35;;;8.50;38.10;;;;;;5052263;28;20270;-67
2022/12/06 02:31:45;;;;;;;1.80;1.10;;;8.10;39.20;;;;;;5051735;28;20184;-68
2022/12/06 02:34:19;;;;;;;2.60;1.80;;;7.80;40.50;;;;;;5051116;28;20207;-67
2022/12/06 02:37:06;;;;;;;2.22;1.45;;;7.80;41.10;;;;;;5052359;28;20635;-68
2022/12/06 02:39:50;;;;;;;1.95;1.20;;;7.70;41.50;;;;;;5052033;28;20631;-67
2022/12/06 02:43:02;;;;;;;1.70;1.00;;;7.70;41.90;;;;;;5052052;28;20175;-67
2022/12/06 02:45:31;;;;;;;1.80;1.20;;;7.90;42.10;;;;;;4976264;28;20277;-67
2022/12/06 02:48:02;;;;;;;2.00;1.30;;;8.00;41.10;;;;;;4982617;28;20186;-68
2022/12/06 02:50:41;;;;;;;2.95;1.77;;;8.10;41.10;;;;;;4974077;28;20217;-67
2022/12/06 02:53:15;;;;;;;2.00;1.35;;;8.10;40.80;;;;;;4990375;28;20563;-68
2022/12/06 02:55:42;;;;;;;2.50;1.70;;;8.40;41.50;;;;;;4990000;28;20182;-67
2022/12/06 02:58:09;;;;;;;1.90;1.27;;;8.10;40.80;;;;;;4988650;28;20681;-67
2022/12/06 03:00:38;;;;;;;5.15;1.65;;;8.20;40.60;;;;;;4970505;28;20209;-67
2022/12/06 03:03:31;;;;;;;1.90;1.25;;;8.20;40.60;;;;;;4979934;28;20187;-67
2022/12/06 03:06:02;;;;;;;1.80;1.17;;;8.40;37.70;;;;;;4973186;28;20198;-67
2022/12/06 03:08:58;;;;;;;1.80;1.15;;;8.40;39.00;;;;;;4970109;28;20191;-68
2022/12/06 03:11:28;;;;;;;1.80;1.20;;;8.50;38.70;;;;;;4969608;28;20212;-67
2022/12/06 03:13:57;;;;;;;1.75;1.10;;;8.60;37.70;;;;;;4969758;28;20221;-67
2022/12/06 03:16:29;;;;;;;1.80;1.20;;;8.50;37.70;;;;;;4966162;28;20218;-67
2022/12/06 03:19:17;;;;;;;1.70;1.10;;;8.50;37.90;;;;;;4969960;28;20190;-67
2022/12/06 03:21:57;;;;;;;1.70;1.13;;;8.60;38.50;;;;;;5037333;28;20196;-67
2022/12/06 03:24:27;;;;;;;1.90;1.27;;;7.40;39.80;;;;;;5050839;28;20215;-67
2022/12/06 03:26:55;;;;;;;1.70;1.10;;;7.40;41.40;;;;;;5050998;28;20176;-67
2022/12/06 03:29:25;;;;;;;1.70;1.10;;;7.70;40.00;;;;;;5050690;28;20207;-67
2022/12/06 03:31:52;;;;;;;2.17;1.45;;;7.90;39.70;;;;;;5049952;28;20223;-68
2022/12/06 03:34:23;;;;;;;2.25;1.40;;;8.10;39.50;;;;;;5051331;28;20179;-67
2022/12/06 03:36:51;;;;;;;1.70;1.10;;;8.10;39.40;;;;;;5051629;28;20160;-67
2022/12/06 03:39:34;;;;;;;2.25;1.40;;;8.00;40.00;;;;;;5051507;28;20192;-67
2022/12/06 03:42:01;;;;;;;1.77;1.10;;;7.90;40.00;;;;;;5048780;28;20198;-67
2022/12/06 03:44:27;;;;;;;1.80;1.20;;;8.00;40.00;;;;;;5051215;28;20318;-67
2022/12/06 03:46:59;;;;;;;2.17;1.40;;;7.80;39.80;;;;;;5050441;28;20274;-68
2022/12/06 03:49:27;;;;;;;1.73;1.10;;;8.00;38.60;;;;;;5050964;28;20203;-68
2022/12/06 03:51:53;;;;;;;2.20;1.58;;;8.00;38.40;;;;;;5049530;28;20214;-68
2022/12/06 03:54:19;;;;;;;1.70;1.10;;;8.10;38.10;;;;;;5049862;28;20204;-67
2022/12/06 03:56:45;;;;;;;1.83;1.10;;;8.10;38.00;;;;;;5052657;28;20187;-67
2022/12/06 03:59:11;;;;;;;2.00;1.20;;;7.90;39.20;;;;;;5051063;28;20180;-67
2022/12/06 04:01:37;;;;;;;1.80;1.10;;;7.70;39.40;;;;;;5049645;28;20182;-67
2022/12/06 04:04:04;;;;;;;1.90;1.10;;;7.60;39.10;;;;;;5052315;28;20188;-68
2022/12/06 04:06:30;;;;;;;1.80;1.10;;;7.70;38.40;;;;;;5049980;28;20741;-67
2022/12/06 04:09:51;;;;;;;3.70;1.73;;;7.90;37.90;;;;;;5051396;28;20191;-68
2022/12/06 04:11:41;;;;;;;1.83;1.10;;;7.90;38.30;;;;;;5044459;28;20306;-68
2022/12/06 04:14:07;;;;;;;2.47;1.80;;;7.90;37.90;;;;;;5050555;28;20267;-68
2022/12/06 04:19:16;;;;;;;1.80;1.10;;;7.80;38.10;;;;;;5053052;28;20194;-67
2022/12/06 04:24:26;;;;;;;1.80;1.20;;;8.10;36.60;;;;;;5062444;28;20198;-68
2022/12/06 04:28:40;;;;;;;1.90;1.20;;;8.00;36.30;;;;;;5053924;28;20262;-67
2022/12/06 04:40:34;;;;;;;1.73;1.05;;;7.70;38.30;;;;;;5046369;28;20219;-68
2022/12/06 04:45:43;;;;;;;1.80;1.00;;;7.80;38.30;;;;;;5049593;28;20294;-67
2022/12/06 04:48:10;;;;;;;2.00;1.20;;;7.60;38.40;;;;;;5054481;28;20261;-68
2022/12/06 04:50:35;;;;;;;1.80;1.10;;;7.60;38.70;;;;;;5053979;28;20740;-67
2022/12/06 04:53:01;;;;;;;1.80;1.10;;;7.60;39.00;;;;;;5053826;28;20274;-67
2022/12/06 04:55:27;;;;;;;1.80;1.10;;;7.60;39.20;;;;;;5054140;28;20505;-67
2022/12/06 04:57:52;;;;;;;1.80;1.10;;;7.70;39.30;;;;;;5054437;28;20179;-67
2022/12/06 05:00:18;;;;;;;1.90;1.30;;;7.80;39.50;;;;;;5054062;28;20219;-67
2022/12/06 05:02:44;;;;;;;2.67;1.37;;;7.70;39.30;;;;;;5052945;28;20191;-67
2022/12/06 05:05:09;;;;;;;1.70;1.10;;;7.60;39.80;;;;;;5054120;28;20419;-67
2022/12/06 05:07:35;;;;;;;1.70;1.00;;;7.70;39.50;;;;;;5054031;28;20180;-67
2022/12/06 05:10:00;;;;;;;1.80;1.20;;;7.80;38.90;;;;;;5054229;28;20640;-67
2022/12/06 05:12:26;;;;;;;1.80;1.20;;;8.00;38.60;;;;;;5053238;28;20215;-66
2022/12/06 05:14:51;;;;;;;1.70;1.10;;;8.00;39.20;;;;;;5053972;28;20194;-66
2022/12/06 05:17:17;;;;;;;1.70;1.00;;;8.60;38.40;;;;;;5053773;28;20662;-66
2022/12/06 05:19:42;;;;;;;1.70;1.00;;;8.10;38.20;;;;;;5053765;28;20254;-67
2022/12/06 05:22:08;;;;;;;1.70;1.10;;;8.00;38.90;;;;;;5054041;28;20180;-67
2022/12/06 05:24:33;;;;;;;1.70;1.00;;;8.00;38.50;;;;;;5052798;28;20192;-67
2022/12/06 05:26:59;;;;;;;1.70;1.10;;;8.20;37.40;;;;;;5053684;28;20208;-67
2022/12/06 05:29:25;;;;;;;1.73;1.10;;;8.30;37.20;;;;;;5056288;28;20227;-69
2022/12/06 05:31:50;;;;;;;2.20;1.47;;;8.20;38.80;;;;;;5053317;28;20195;-67
2022/12/06 05:34:16;;;;;;;1.70;1.00;;;8.00;39.10;;;;;;5052525;28;20275;-67
2022/12/06 05:36:44;;;;;;;2.27;1.57;;;8.00;38.80;;;;;;5053160;28;20179;-67
2022/12/06 05:39:09;;;;;;;1.80;1.20;;;7.90;39.10;;;;;;5053487;28;20558;-67
2022/12/06 05:41:35;;;;;;;1.70;1.10;;;8.00;38.90;;;;;;5053453;28;20176;-68
2022/12/06 05:44:00;;;;;;;1.80;1.23;;;8.10;38.40;;;;;;5052841;28;20169;-68
2022/12/06 05:46:26;;;;;;;1.80;1.10;;;8.30;37.30;;;;;;5052917;28;20639;-67
2022/12/06 05:48:52;;;;;;;2.07;1.00;;;8.40;36.90;;;;;;5053029;28;20176;-67
2022/12/06 05:51:17;;;;;;;1.60;1.00;;;8.30;38.20;;;;;;5053016;28;20615;-68
2022/12/06 05:53:43;;;;;;;1.80;1.20;;;8.40;38.50;;;;;;5052999;28;20262;-67
2022/12/06 05:56:11;;;;;;;1.70;1.10;;;8.40;37.40;;;;;;5052416;28;20187;-67
2022/12/06 05:58:37;;;;;;;1.85;1.13;;;8.40;37.80;;;;;;5053078;28;20535;-67
2022/12/06 06:01:04;;;;;;;1.70;1.10;;;8.40;38.00;;;;;;5053061;28;20196;-67
2022/12/06 06:03:30;;;;;;;1.70;1.10;;;8.40;37.80;;;;;;5051820;28;20244;-68
2022/12/06 06:05:58;;;;;;;1.80;1.17;;;8.40;38.00;;;;;;5053003;28;20188;-67
2022/12/06 06:08:25;;;;;;;1.80;1.20;;;8.50;37.60;;;;;;5052821;28;20215;-68
2022/12/06 06:10:50;;;;;;;1.70;1.10;;;8.40;37.90;;;;;;5052488;28;20215;-67
2022/12/06 06:13:16;;;;;;;1.70;1.03;;;8.30;37.70;;;;;;5051208;28;20184;-68
2022/12/06 06:15:41;;;;;;;1.70;1.00;;;8.20;38.10;;;;;;5053215;28;20172;-66
2022/12/06 06:18:07;;;;;;;1.93;1.30;;;8.00;38.50;;;;;;5054471;28;20172;-66
2022/12/06 06:20:33;;;;;;;1.70;1.10;;;7.70;39.30;;;;;;5054662;28;20195;-67
2022/12/06 06:22:58;;;;;;;1.70;1.00;;;7.60;40.00;;;;;;5053217;28;20172;-67
2022/12/06 06:25:24;;;;;;;1.70;1.10;;;7.60;40.00;;;;;;5052892;28;20437;-66
2022/12/06 06:27:50;;;;;;;1.70;1.00;;;7.40;39.80;;;;;;5052475;28;20241;-66
2022/12/06 06:30:16;;;;;;;1.70;1.10;;;7.50;41.30;;;;;;5052948;28;22155;-66
2022/12/06 06:32:42;;;;;;;1.80;1.20;;;6.90;41.80;;;;;;5052896;28;20203;-68
2022/12/06 06:35:08;;;;;;;2.37;1.30;;;6.70;43.20;;;;;;5050204;28;20430;-67
2022/12/06 06:37:34;;;;;;;1.90;1.30;;;6.80;43.00;;;;;;5051778;28;20855;-67
2022/12/06 06:40:00;;;;;;;1.93;1.30;;;6.90;42.50;;;;;;5055287;28;20441;-67
2022/12/06 06:42:26;;;;;;;2.55;1.40;;;7.10;42.30;;;;;;5051925;28;20195;-67
2022/12/06 06:44:53;;;;;;;3.55;1.85;;;7.40;41.10;;;;;;5052053;28;20522;-67
2022/12/06 06:47:19;;;;;;;1.85;1.10;;;7.70;40.60;;;;;;5051373;28;20234;-69
2022/12/06 06:49:45;;;;;;;1.80;1.20;;;7.80;40.50;;;;;;5052055;28;20223;-67
2022/12/06 06:52:11;;;;;;;3.00;1.40;;;7.90;40.20;;;;;;5051956;28;20231;-67
2022/12/06 06:54:36;;;;;;;2.30;1.43;;;8.00;41.00;;;;;;5052203;28;20217;-75
2022/12/06 06:57:02;;;;;;;1.70;1.03;;;8.00;39.70;;;;;;5051316;28;20222;-75
2022/12/06 06:59:28;;;;;;;1.70;1.10;;;7.20;40.40;;;;;;5043095;28;20667;-75
2022/12/06 07:01:53;;;;;;;1.70;1.10;;;7.00;41.50;;;;;;5051726;28;20187;-75
2022/12/06 07:04:19;;;;;;;1.70;1.10;;;7.30;41.00;;;;;;5053374;28;20183;-71
2022/12/06 07:06:44;;;;;;;1.93;1.30;;;7.70;39.40;;;;;;5056293;28;20667;-69
2022/12/06 07:09:10;;;;;;;1.70;1.10;;;8.10;37.80;;;;;;5053792;28;20670;-69
2022/12/06 07:11:36;;;;;;;2.30;1.60;;;8.10;37.50;;;;;;5049915;28;20234;-69
2022/12/06 07:14:02;;;;;;;2.57;1.70;;;8.40;36.90;;;;;;5045967;28;20454;-70
2022/12/06 07:16:28;;;;;;;1.70;1.10;;;8.20;38.70;;;;;;5051213;28;20184;-70
2022/12/06 07:18:54;;;;;;;1.80;1.20;;;8.30;36.90;;;;;;5051851;28;20819;-70
2022/12/06 07:21:22;;;;;;;1.80;1.13;;;8.40;36.90;;;;;;5051946;28;20288;-70
2022/12/06 07:23:48;;;;;;;1.70;1.10;;;8.40;37.30;;;;;;5047253;28;20443;-69
2022/12/06 07:26:20;;;;;;;2.50;1.40;;;8.30;38.00;;;;;;5049223;28;20578;-70
2022/12/06 07:28:47;;;;;;;2.00;1.42;;;8.80;36.90;;;;;;5032085;28;20666;-72
2022/12/06 07:31:21;;;;;;;1.80;1.20;;;8.60;36.70;;;;;;5032798;28;20695;-72
2022/12/06 07:33:50;;;;;;;2.22;1.45;;;8.20;37.50;;;;;;5052546;28;20179;-72
2022/12/06 07:36:16;;;;;;;2.40;1.52;;;7.20;39.20;;;;;;5051442;28;20203;-72
2022/12/06 07:38:45;;;;;;;1.80;1.20;;;7.30;40.70;;;;;;5051032;28;20298;-72
2022/12/06 07:46:42;;;;;;;2.53;1.40;;;8.20;37.50;;;;;;5046090;28;20198;-71
2022/12/06 07:49:08;;;;;;;1.80;1.30;;;8.40;36.90;;;;;;5050333;28;20179;-71
2022/12/06 07:51:34;;;;;;;1.70;1.30;;;8.80;36.80;;;;;;5045770;28;20219;-72
2022/12/06 07:54:00;;;;;;;1.90;1.20;;;8.80;35.60;;;;;;5047075;28;20260;-71
2022/12/06 07:56:25;;;;;;;1.70;1.10;;;8.80;35.70;;;;;;5054707;28;20430;-71
2022/12/06 07:58:51;;;;;;;1.70;1.30;;;8.70;35.80;;;;;;5052550;28;20182;-71
2022/12/06 08:01:18;;;;;;;2.00;1.33;;;8.80;35.20;;;;;;5053296;28;20207;-72
2022/12/06 08:03:44;;;;;;;1.70;1.10;;;8.60;37.00;;;;;;5054976;28;20544;-72
2022/12/06 08:06:09;;;;;;;1.70;1.10;;;8.90;37.00;;;;;;5055187;28;20643;-73
2022/12/06 08:08:36;;;;;;;4.90;2.80;;;8.50;37.70;;;;;;5053961;28;20794;-72
2022/12/06 08:11:04;;;;;;;1.70;1.10;;;8.70;35.70;;;;;;5051866;28;20216;-74
2022/12/06 08:13:31;;;;;;;1.80;1.20;;;8.80;35.80;;;;;;5054255;28;20199;-73
2022/12/06 08:15:57;;;;;;;1.70;1.10;;;8.70;36.30;;;;;;5054895;28;20552;-72
2022/12/06 08:18:22;;;;;;;1.70;1.10;;;8.50;36.60;;;;;;5053750;28;20168;-71
2022/12/06 08:20:49;;;;;;;1.80;1.40;;;8.30;37.30;;;;;;5053535;28;20195;-72
2022/12/06 08:23:15;;;;;;;1.70;1.10;;;8.40;37.10;;;;;;5053576;28;20188;-73
2022/12/06 08:25:40;;;;;;;1.83;1.23;;;8.40;37.00;;;;;;5053988;28;20639;-71
2022/12/06 08:28:06;;;;;;;1.70;1.10;;;8.60;37.40;;;;;;5054805;28;20172;-72
2022/12/06 08:30:32;;;;;;;2.27;1.30;;;8.80;37.70;;;;;;5051646;28;20293;-72
2022/12/06 08:32:57;;;;;;;1.70;1.10;;;8.60;37.80;;;;;;5053156;28;20176;-72
2022/12/06 08:35:23;;;;;;;2.20;1.30;;;8.60;38.40;;;;;;5053868;28;20222;-72
2022/12/06 08:37:48;;;;;;;1.70;1.10;;;8.70;37.20;;;;;;5053725;28;20202;-72
2022/12/06 08:40:14;;;;;;;1.80;1.20;;;9.10;35.50;;;;;;5052920;28;20195;-72
2022/12/06 08:42:42;;;;;;;1.70;1.10;;;9.20;35.50;;;;;;5054015;28;20548;-72
2022/12/06 08:45:08;;;;;;;2.22;1.60;;;9.10;36.10;;;;;;5052442;28;20218;-72
2022/12/06 08:47:34;;;;;;;2.28;1.55;;;9.00;35.80;;;;;;5051933;28;20225;-74
2022/12/06 08:49:59;;;;;;;1.90;1.33;;;9.00;36.10;;;;;;5048864;28;20239;-73
2022/12/06 08:52:25;;;;;;;2.20;1.60;;;9.00;37.10;;;;;;5047993;28;20207;-73
2022/12/06 08:54:50;;;;;;;2.57;1.67;;;8.90;37.10;;;;;;5052271;28;20184;-73
2022/12/06 08:57:16;;;;;;;2.23;1.70;;;8.80;37.50;;;;;;5054293;28;20635;-73
2022/12/06 08:59:42;;;;;;;1.90;1.33;;;8.80;37.20;;;;;;5054268;28;20809;-73
2022/12/06 09:02:11;;;;;;;1.70;1.00;;;8.90;37.30;;;;;;5052635;28;20267;-73
2022/12/06 09:04:37;;;;;;;1.70;1.10;;;8.80;37.80;;;;;;5051533;28;20410;-73
2022/12/06 09:07:02;;;;;;;1.80;1.27;;;9.10;36.90;;;;;;5052977;28;20188;-73
2022/12/06 09:09:28;;;;;;;1.80;1.20;;;9.10;36.30;;;;;;5053017;28;20258;-74
2022/12/06 09:11:54;;;;;;;1.70;1.10;;;9.40;37.10;;;;;;5053775;28;20212;-74
2022/12/06 09:14:20;;;;;;;1.80;1.20;;;9.20;36.60;;;;;;5054141;28;20176;-74
2022/12/06 09:16:45;;;;;;;2.70;1.50;;;9.50;34.40;;;;;;5054105;28;20267;-73
2022/12/06 09:19:12;;;;;;;2.20;1.63;;;9.60;33.80;;;;;;5054040;28;20413;-73
2022/12/06 09:21:41;;;;;;;1.65;1.10;;;9.60;33.90;;;;;;5054481;28;20263;-73
2022/12/06 09:24:10;;;;;;;1.80;1.20;;;9.80;33.20;;;;;;5052643;28;20207;-73
2022/12/06 09:26:36;;;;;;;1.80;1.10;;;9.70;34.50;;;;;;5053777;28;20548;-73
2022/12/06 09:29:02;;;;;;;2.00;1.40;;;9.50;35.40;;;;;;5053696;28;20175;-73
2022/12/06 09:31:27;;;;;;;2.47;1.50;;;9.80;36.30;;;;;;5053436;28;20286;-73
2022/12/06 09:33:53;;;;;;;1.77;1.20;;;9.30;35.70;;;;;;5053494;28;20414;-73
2022/12/06 09:36:18;;;;;;;3.10;1.60;;;9.20;36.30;;;;;;5053643;28;20255;-73
2022/12/06 09:38:46;;;;;;;1.70;1.10;;;9.30;36.00;;;;;;5053862;28;20172;-73
2022/12/06 09:41:31;;;;;;;3.45;2.10;;;9.50;36.20;;;;;;5053507;28;20199;-73
2022/12/06 09:44:15;;;;;;;1.92;1.30;;;9.50;35.50;;;;;;5053150;28;20545;-73
2022/12/06 09:47:12;;;;;;;2.42;1.63;;;9.60;35.00;;;;;;5053952;28;20521;-73
2022/12/06 09:49:59;;;;;;;2.00;1.50;;;9.40;35.30;;;;;;5053714;28;20287;-73
2022/12/06 09:52:24;;;;;;;1.90;1.30;;;9.60;34.90;;;;;;5053060;28;20203;-72
2022/12/06 09:55:09;;;;;;;1.80;1.10;;;9.70;34.60;;;;;;5053217;28;20657;-73
2022/12/06 09:57:41;;;;;;;1.90;1.33;;;9.70;34.40;;;;;;5053402;28;20164;-73
2022/12/06 10:00:20;;;;;;;1.80;1.20;;;9.70;34.20;;;;;;5053285;28;20675;-73
2022/12/06 10:03:10;;;;;;;1.98;1.33;;;9.70;34.00;;;;;;5052996;28;20663;-73
2022/12/06 10:05:57;;;;;;;1.92;1.35;;;9.70;33.80;;;;;;5053357;28;20167;-73
2022/12/06 10:08:50;;;;;;;1.92;1.10;;;9.60;33.90;;;;;;5053244;28;20175;-73
2022/12/06 10:11:29;;;;;;;1.70;1.10;;;9.60;34.10;;;;;;5052567;28;20203;-73
2022/12/06 10:14:19;;;;;;;1.70;1.10;;;9.30;34.40;;;;;;5052963;28;20183;-73
2022/12/06 10:16:54;;;;;;;1.70;1.10;;;8.40;37.60;;;;;;5052778;28;20157;-73
2022/12/06 10:19:34;;;;;;;3.05;1.50;;;8.50;37.30;;;;;;5053123;28;20203;-73
2022/12/06 10:22:15;;;;;;;1.70;1.10;;;8.60;36.50;;;;;;5052530;28;20322;-73
2022/12/06 10:25:00;;;;;;;1.70;1.10;;;8.40;37.80;;;;;;5052699;28;20175;-73
2022/12/06 10:27:37;;;;;;;4.18;2.38;;;8.60;38.10;;;;;;5052788;28;20167;-73
2022/12/06 10:30:13;;;;;;;2.45;2.10;;;8.80;37.50;;;;;;5053658;28;20207;-73
2022/12/06 10:33:10;;;;;;;2.00;1.38;;;9.20;36.60;;;;;;5052109;28;20565;-73
2022/12/06 10:35:48;;;;;;;1.80;1.20;;;9.10;37.00;;;;;;5052415;28;20191;-73
2022/12/06 10:38:27;;;;;;;1.80;1.58;;;8.90;37.30;;;;;;5052621;28;20168;-73
2022/12/06 10:41:00;;;;;;;1.70;1.20;;;8.10;39.50;;;;;;5052414;28;20195;-73
2022/12/06 10:43:32;;;;;;;1.70;1.20;;;8.30;39.70;;;;;;5052532;28;20538;-73
2022/12/06 10:49:25;;;;;;;2.22;1.60;;;8.40;39.80;;;;;;5051690;28;20210;-73
2022/12/06 10:52:14;;;;;;;2.15;1.75;;;8.50;39.00;;;;;;5052011;28;20218;-73
2022/12/06 10:54:49;;;;;;;3.85;2.28;;;8.10;39.40;;;;;;5052821;28;20167;-73
2022/12/06 10:57:22;;;;;;;1.80;1.20;;;8.10;39.60;;;;;;5052028;28;20176;-73
2022/12/06 11:00:04;;;;;;;1.70;1.10;;;8.10;40.40;;;;;;5052451;28;20184;-73
2022/12/06 11:03:08;;;;;;;1.83;1.20;;;8.30;39.90;;;;;;5051923;28;20218;-73
2022/12/06 11:05:42;;;;;;;1.70;1.10;;;8.60;39.10;;;;;;5061275;28;20195;-73
2022/12/06 11:08:16;;;;;;;2.45;1.58;;;9.00;37.40;;;;;;5055824;28;20163;-73
2022/12/06 11:10:44;;;;;;;1.90;1.20;;;8.70;37.90;;;;;;5055107;28;20199;-73
2022/12/06 11:13:39;;;;;;;1.80;1.10;;;8.20;39.70;;;;;;5055689;28;20172;-73
2022/12/06 11:16:11;;;;;;;1.70;1.10;;;8.20;39.90;;;;;;5046909;28;20192;-73
2022/12/06 11:18:37;;;;;;;1.80;1.20;;;7.90;41.10;;;;;;5055377;28;20167;-73
2022/12/06 11:21:31;;;;;;;2.57;1.37;;;8.00;41.00;;;;;;5053884;28;20187;-73
2022/12/06 11:24:00;;;;;;;2.00;1.27;;;7.90;41.10;;;;;;5033024;28;20419;-73
2022/12/06 11:27:08;;;;;;;1.70;1.00;;;8.10;40.70;;;;;;5039396;28;20744;-73
2022/12/06 11:29:33;;;;;;;2.13;1.38;;;8.50;40.80;;;;;;5044446;28;20308;-73
2022/12/06 11:32:06;;;;;;;1.80;1.10;;;8.00;40.10;;;;;;5052004;28;20290;-73
2022/12/06 11:34:37;;;;;;;2.80;1.90;;;7.80;42.20;;;;;;5052369;28;20231;-73
2022/12/06 11:37:04;;;;;;;2.30;1.40;;;8.50;39.70;;;;;;5052523;28;20216;-73
2022/12/06 11:39:32;;;;;;;2.20;1.58;;;8.50;39.30;;;;;;5052900;28;20229;-72
2022/12/06 11:42:02;;;;;;;1.90;1.30;;;8.00;39.80;;;;;;5052989;28;20168;-72
2022/12/06 11:44:40;;;;;;;1.70;1.10;;;8.10;40.80;;;;;;5052173;28;20188;-72
2022/12/06 11:47:06;;;;;;;2.03;1.35;;;8.80;38.80;;;;;;5045929;28;20646;-72
2022/12/06 11:49:42;;;;;;;1.90;1.20;;;9.20;37.50;;;;;;5043707;28;20254;-74
2022/12/06 11:52:38;;;;;;;1.80;1.15;;;9.30;36.80;;;;;;5049303;28;20290;-72
2022/12/06 11:55:20;;;;;;;4.03;1.63;;;8.40;38.70;;;;;;5004551;28;20192;-72
2022/12/06 11:57:57;;;;;;;2.03;1.40;;;8.90;37.80;;;;;;5042006;28;20181;-72
2022/12/06 12:00:24;;;;;;;1.80;1.20;;;9.20;36.80;;;;;;5049018;28;20209;-72
2022/12/06 12:02:53;;;;;;;2.08;1.33;;;9.40;37.40;;;;;;5046107;28;20601;-70
2022/12/06 12:05:33;;;;;;;1.70;1.10;;;9.60;36.30;;;;;;5048051;28;20293;-72
2022/12/06 12:08:18;;;;;;;3.33;1.65;;;9.30;37.30;;;;;;5049665;28;20640;-71
2022/12/06 12:10:56;;;;;;;1.70;1.00;;;9.00;38.10;;;;;;5045165;28;20207;-72
2022/12/06 12:16:13;;;;;;;1.70;1.00;;;8.30;39.70;;;;;;5052021;28;20178;-72
2022/12/06 12:18:53;;;;;;;2.00;1.50;;;8.30;39.70;;;;;;5049822;28;20181;-72
2022/12/06 12:21:33;;;;;;;2.15;1.45;;;8.40;39.70;;;;;;5047843;28;20235;-72
2022/12/06 12:23:59;;;;;;;2.00;1.38;;;8.60;39.50;;;;;;5051034;28;20310;-72
2022/12/06 12:26:40;;;;;;;1.70;1.10;;;8.80;38.30;;;;;;5050494;28;20268;-72
2022/12/06 12:29:17;;;;;;;1.90;1.30;;;8.70;39.00;;;;;;5048075;28;20230;-72
2022/12/06 12:31:57;;;;;;;2.20;1.30;;;8.80;38.90;;;;;;5044940;28;20320;-72
2022/12/06 12:34:29;;;;;;;1.83;1.17;;;9.40;37.50;;;;;;5049312;28;20187;-72
2022/12/06 12:37:00;;;;;;;2.13;1.35;;;9.40;37.30;;;;;;5050041;28;20192;-72
2022/12/06 12:39:38;;;;;;;1.70;1.10;;;9.10;38.50;;;;;;5053771;28;20207;-72
2022/12/06 12:42:04;;;;;;;1.90;1.20;;;8.30;40.20;;;;;;5055000;28;20329;-72
2022/12/06 12:44:32;;;;;;;1.80;1.20;;;8.80;38.90;;;;;;5054686;28;20592;-73
2022/12/06 12:47:19;;;;;;;3.55;1.83;;;8.60;39.40;;;;;;5053476;28;20188;-73
2022/12/06 12:50:17;;;;;;;1.83;1.30;;;9.00;38.60;;;;;;5054128;28;20200;-72
2022/12/06 12:52:42;;;;;;;1.75;1.20;;;8.90;38.50;;;;;;5055263;28;20277;-72
2022/12/06 12:55:21;;;;;;;1.60;1.00;;;8.80;38.50;;;;;;5056020;28;20188;-73
2022/12/06 12:57:49;;;;;;;1.70;1.15;;;8.30;39.50;;;;;;5031617;28;20430;-72
2022/12/06 13:00:18;;;;;;;1.80;1.10;;;8.30;40.60;;;;;;5046894;28;20278;-73
2022/12/06 13:02:49;;;;;;;1.80;1.20;;;8.80;39.30;;;;;;5056806;28;20225;-74
2022/12/06 13:05:18;;;;;;;1.85;1.30;;;8.80;39.00;;;;;;5054248;28;20267;-73
2022/12/06 13:07:46;;;;;;;2.80;1.55;;;8.80;38.90;;;;;;5054003;28;20186;-72
2022/12/06 13:10:35;;;;;;;1.67;1.10;;;9.10;38.50;;;;;;5055380;28;20215;-73
2022/12/06 13:13:15;;;;;;;1.70;1.08;;;9.10;39.00;;;;;;5054783;28;20184;-72
2022/12/06 13:15:46;;;;;;;1.70;1.00;;;9.50;37.70;;;;;;5031563;28;20325;-72
2022/12/06 13:18:37;;;;;;;1.70;1.20;;;9.50;36.90;;;;;;5053596;28;20184;-73
2022/12/06 13:21:25;;;;;;;1.98;1.45;;;9.60;37.20;;;;;;5053125;28;20282;-73
2022/12/06 13:23:54;;;;;;;1.70;1.02;;;9.90;36.50;;;;;;5035586;28;20238;-72
2022/12/06 13:26:31;;;;;;;1.90;1.25;;;10.10;35.30;;;;;;5053994;28;20185;-75
2022/12/06 13:29:07;;;;;;;1.65;1.08;;;10.10;34.50;;;;;;5053821;28;20183;-75
2022/12/06 13:31:35;;;;;;;1.70;1.10;;;9.80;35.90;;;;;;5054950;28;20207;-74
2022/12/06 13:34:15;;;;;;;1.70;1.20;;;9.80;36.20;;;;;;5054655;28;20172;-73
2022/12/06 13:36:41;;;;;;;2.97;1.48;;;9.80;35.80;;;;;;5054640;28;20194;-73
2022/12/06 13:39:48;;;;;;;2.20;1.53;;;10.30;32.70;;;;;;5052651;28;20716;-73
2022/12/06 13:42:44;;;;;;;1.65;1.05;;;10.30;33.80;;;;;;4963794;28;20438;-73
2022/12/06 13:45:28;;;;;;;1.90;1.33;;;10.40;33.70;;;;;;4951158;28;20191;-74
2022/12/06 13:47:53;;;;;;;1.70;1.10;;;10.70;34.80;;;;;;4944795;29;20200;-74
2022/12/06 13:50:19;;;;;;;1.90;1.30;;;10.40;34.30;;;;;;4952406;28;20218;-73